ADDS METAR Data INFO
IDs: Format: Raw Decoded Include TAF

Data at: 0317 UTC 20 Jul 2018

KI63 200255Z AUTO 21009KT 10SM -RA SCT050 SCT075 SCT100 20/19 A2983 RMK AO2 LTG DSNT ALQS 60069 T02000186
KI63 200235Z AUTO 15009G16KT 10SM SCT049 SCT060 SCT075 21/18 A2980 RMK AO2 LTG DSNT E SE AND W T02070175
KI63 200215Z AUTO 19011KT 10SM -VCTSDZ SCT060 BKN070 OVC120 20/18 A2980 RMK AO2 LTG DSNT ALQS T02010180
KI63 200155Z AUTO 12012KT 10SM TSRA SCT016 BKN055 OVC095 21/17 A2981 RMK AO2 LTG DSNT ALQS P0069 T02070171
KI63 200135Z AUTO 31014G23KT 2SM /VCTSRA BKN017 BKN037 OVC049 21/19 A2988 RMK AO2 LTG DSNT ALQS P0039 T02120187
KI63 200115Z AUTO 02003KT 10SM TSRA SCT060 SCT075 BKN085 26/23 A2983 RMK AO2 LTG DSNT ALQS P0001 T02550229
KI63 200055Z AUTO 13004KT 10SM TS CLR 26/22 A2979 RMK AO2 LTG DSNT ALQS T02570222
KI63 200035Z AUTO 16007KT 10SM CLR 26/22 A2978 RMK AO2 LTG DSNT W AND NW T02640221
KI63 200015Z AUTO 17010G16KT 10SM CLR 27/22 A2978 RMK AO2 LTG DSNT NW T02680220
KI63 192355Z AUTO 17010KT 10SM CLR 28/22 A2979 RMK AO2 LTG DSNT NW T02750220 10291 20225
KI63 192335Z AUTO 17011G17KT 10SM CLR 28/22 A2978 RMK AO2 LTG DSNT NW T02760219
KI63 192315Z AUTO 17013KT 10SM SCT029 SCT035 SCT085 28/22 A2978 RMK AO2 LTG DSNT NW T02790219
KI63 192255Z AUTO 16013G17KT 10SM SCT033 SCT085 28/22 A2980 RMK AO2 T02800222
KI63 192235Z AUTO 17013KT 10SM SCT031 SCT038 BKN085 28/22 A2980 RMK AO2 T02840223
KI63 192215Z AUTO 17009G15KT 10SM SCT029 BKN034 28/22 A2981 RMK AO2 LTG DSNT NW T02810222
KI63 192155Z AUTO 16009G16KT 10SM SCT028 SCT034 28/22 A2982 RMK AO2 T02790222
KI63 192135Z AUTO 15013G16KT 10SM SCT028 29/22 A2982 RMK AO2 LTG DSNT NW T02860221
KI63 192115Z AUTO 16012G16KT 10SM SCT027 28/22 A2983 RMK AO2 T02810219
KI63 192055Z AUTO 16011KT 10SM SCT028 SCT120 28/22 A2983 RMK AO2 T02790218
KI63 192035Z AUTO 16010KT 10SM CLR 28/22 A2982 RMK AO2 T02790215
KI63 192015Z AUTO 15009G15KT 10SM CLR 28/21 A2984 RMK AO2 LTG DSNT E T02800213
KI63 191955Z AUTO 17012G15KT 10SM CLR 27/21 A2985 RMK AO2 LTG DSNT E T02710213
KI63 191935Z AUTO 14010G14KT 10SM SCT021 27/22 A2986 RMK AO2 LTG DSNT NE AND E T02680216
KI63 191915Z AUTO 15009G15KT 10SM VCTS SCT021 26/21 A2987 RMK AO2 LTG DSNT NE AND E T02630212
KI63 191855Z AUTO 17009KT 10SM SCT019 26/21 A2988 RMK AO2 LTG DSNT E AND W T02550207
KI63 191835Z AUTO 17012G15KT 10SM VCTS SCT019 SCT120 25/21 A2988 RMK AO2 LTG DSNT NE AND E T02500208
KI63 191815Z AUTO 15011KT 10SM SCT120 24/21 A2989 RMK AO2 LTG DSNT NE T02370205
KI63 191755Z AUTO 15008KT 10SM SCT028 SCT035 SCT041 23/20 A2990 RMK AO2 LTG DSNT NE P0002 60003 T02250203 10225 20177
KI63 191735Z AUTO 15007KT 10SM -RA SCT028 SCT038 BKN075 22/20 A2989 RMK AO2 LTG DSNT N AND NE P0002 T02160201
KI63 191715Z AUTO 14007KT 10SM -RA SCT037 BKN050 OVC085 21/19 A2990 RMK AO2 LTG DSNT N NE AND S P0001 T02050188
KI63 191655Z AUTO 15006KT 10SM VCTS SCT040 OVC050 21/18 A2991 RMK AO2 LTG DSNT SW THRU N T02050181
KI63 191635Z AUTO 16007KT 10SM VCTS SCT038 BKN055 OVC100 21/18 A2991 RMK AO2 LTG DSNT ALQS T02060177
KI63 191615Z AUTO 14008KT 10SM VCTS BKN035 BKN041 OVC090 21/18 A2992 RMK AO2 LTG DSNT SW THRU NW T02060175
KI63 191555Z AUTO 13008KT 10SM BKN035 BKN050 OVC080 21/17 A2992 RMK AO2 LTG DSNT NE SW AND W T02060171
KI63 191535Z AUTO 14009KT 10SM VCTS BKN035 BKN042 OVC050 21/17 A2993 RMK AO2 LTG DSNT SW THRU NE T02050168
KI63 191515Z AUTO 14009KT 10SM OVC037 21/16 A2993 RMK AO2 LTG DSNT NE SW AND NW T02050164
KI63 191455Z AUTO 14009KT 10SM OVC039 21/17 A2994 RMK AO2 LTG DSNT NE 60001 T02100172
KI63 191435Z AUTO 12007KT 10SM OVC039 20/17 A2994 RMK AO2 LTG DSNT N NE AND S T02020171
KI63 191415Z AUTO 11007KT 10SM BKN039 OVC060 20/17 A2995 RMK AO2 LTG DSNT NE T02000170
KI63 191355Z AUTO 09005KT 10SM SCT045 BKN060 OVC080 20/17 A2994 RMK AO2 LTG DSNT NE AND NW T02040172
KI63 191335Z AUTO 12005KT 10SM VCTS OVC043 19/17 A2995 RMK AO2 LTG DSNT N AND NE T01870169
KI63 191315Z AUTO 12004KT 10SM -TSRA OVC043 18/16 A2995 RMK AO2 LTG DSNT N THRU E T01830162
KI63 191255Z AUTO 12006KT 10SM TS OVC043 18/16 A2995 RMK AO2 LTG DSNT N SE AND NW P0001 T01800160
KI63 191235Z AUTO 12006KT 7SM -VCTSRA BKN041 OVC050 18/16 A2996 RMK AO2 LTG DSNT S AND NW P0001 T01770158
KI63 191215Z AUTO 13007KT 7SM -VCTSRA OVC050 18/16 A2997 RMK AO2 LTG DSNT SE THRU NW T01790155
KI63 191155Z AUTO 12006KT 10SM SCT050 BKN070 OVC085 18/16 A2996 RMK AO2 LTG DSNT SE S AND NW 7//// T01810157 10197 20173
KI63 191135Z AUTO 12004KT 10SM -RA SCT050 SCT075 OVC090 18/16 A2996 RMK AO2 LTG DSNT S AND SW T01770156
KI63 191115Z AUTO 14004KT 10SM VCTS SCT050 BKN075 BKN090 18/16 A2996 RMK AO2 LTG DSNT SW THRU NW T01760155
KI63 191055Z AUTO 14004KT 10SM SCT075 BKN100 17/16 A2996 RMK AO2 LTG DSNT S AND NW T01740155
KI63 191035Z AUTO 14003KT 10SM BKN075 BKN100 18/15 A2997 RMK AO2 LTG DSNT S THRU NW T01800150
KI63 191015Z AUTO 11003KT 10SM VCTS BKN075 OVC100 18/15 A2998 RMK AO2 LTG DSNT S T01800154
KI63 190955Z AUTO 13003KT 10SM VCTS BKN075 OVC100 18/15 A2997 RMK AO2 LTG DSNT W T01810149
KI63 190935Z AUTO 12003KT 10SM BKN075 18/15 A2997 RMK AO2 LTG DSNT NW T01810148
KI63 190915Z AUTO 12004KT 10SM SCT075 18/15 A2998 RMK AO2 LTG DSNT NW T01800148
KI63 190855Z AUTO 11004KT 10SM OVC075 18/15 A2998 RMK AO2 T01840150
KI63 190835Z AUTO 11006KT 10SM SCT075 18/15 A2998 RMK AO2 LTG DSNT NW T01810150
KI63 190815Z AUTO 12004KT 10SM CLR 18/15 A2998 RMK AO2 T01840150
KI63 190755Z AUTO 11007KT 10SM CLR 18/15 A2998 RMK AO2 LTG DSNT NW T01830151
KI63 190735Z AUTO 12005KT 10SM CLR 18/15 A2999 RMK AO2 T01800153
KI63 190715Z AUTO 12004KT 10SM CLR 19/16 A3000 RMK AO2 LTG DSNT NW T01860155
KI63 190655Z AUTO 11005KT 10SM CLR 19/16 A3000 RMK AO2 LTG DSNT NW T01870157
KI63 190635Z AUTO 11006KT 10SM CLR 19/16 A3000 RMK AO2 T01900157
KI63 190615Z AUTO 12006KT 10SM SCT075 20/16 A3001 RMK AO2 T01950158
KI63 190555Z AUTO 12006KT 10SM SCT075 20/16 A3001 RMK AO2 T01970159 10258 20195
KI63 190535Z AUTO 12006KT 10SM SCT060 20/16 A3002 RMK AO2 T01970160
KI63 190515Z AUTO 12005KT 10SM SCT060 SCT080 20/16 A3002 RMK AO2 LTG DSNT NW T01960161
KI63 190455Z AUTO 13005KT 10SM CLR 20/17 A3003 RMK AO2 T01960165
KI63 190435Z AUTO 13004KT 10SM CLR 20/17 A3002 RMK AO2 T02020165
KI63 190415Z AUTO 11006KT 10SM CLR 21/16 A3001 RMK AO2 T02100164
KI63 190355Z AUTO 11006KT 10SM CLR 21/17 A3001 RMK AO2 T02100166
KI63 190335Z AUTO 11006KT 10SM CLR 21/17 A3002 RMK AO2 T02110168
KI63 190315Z AUTO 11006KT 10SM CLR 22/17 A3002 RMK AO2 T02170167
KI63 190255Z AUTO 10006KT 10SM CLR 22/17 A3001 RMK AO2 T02190170
KI63 190235Z AUTO 10006KT 10SM CLR 23/17 A3000 RMK AO2 T02250173
KI63 190215Z AUTO 10009KT 10SM CLR 23/18 A3000 RMK AO2 T02260177
KI63 190155Z AUTO 10007KT 10SM CLR 23/18 A3000 RMK AO2 T02290180
KI63 190135Z AUTO 11007KT 10SM CLR 23/18 A3000 RMK AO2 T02330183
KI63 190115Z AUTO 10007KT 10SM CLR 24/19 A3000 RMK AO2 T02350187
KI63 190055Z AUTO 11006KT 10SM CLR 24/19 A3000 RMK AO2 T02410188
KI63 190035Z AUTO 11006KT 10SM CLR 25/19 A3000 RMK AO2 T02450189
KI63 190015Z AUTO 12008KT 10SM CLR 25/19 A3001 RMK AO2 T02520189
KI63 182355Z AUTO 13008KT 10SM CLR 26/19 A3000 RMK AO2 6//// T02620189
KI63 182335Z AUTO 12009KT 10SM CLR 26/19 A3001 RMK AO2 T02620190
KI63 182315Z AUTO 12007KT 10SM CLR 26/19 A3000 RMK AO2 T02630187
KI63 182255Z AUTO 12009KT 10SM CLR 27/19 A3000 RMK AO2 T02680188
KI63 182235Z AUTO 08008KT 10SM SCT035 27/19 A3000 RMK AO2 T02690189
KI63 182215Z AUTO 10009KT 10SM SCT035 28/19 A3001 RMK AO2 T02800193
KI63 182155Z AUTO 09009G14KT 10SM CLR 27/19 A3001 RMK AO2 T02710186
KI63 182135Z AUTO 10008KT 10SM CLR 28/19 A3002 RMK AO2 T02810190
KI63 182115Z AUTO 10009KT 10SM CLR 28/19 A3002 RMK AO2 T02820189
KI63 182055Z AUTO 13007KT 10SM SCT035 28/19 A3003 RMK AO2 6//// T02750191
KI63 182035Z AUTO 11008KT 10SM CLR 27/19 A3004 RMK AO2 T02730188
KI63 182015Z AUTO 10006KT 10SM CLR 28/19 A3005 RMK AO2 T02750192
KI63 181955Z AUTO 11010KT 10SM CLR 28/19 A3005 RMK AO2 T02780189
KI63 181935Z AUTO 11008KT 10SM CLR 28/19 A3006 RMK AO2 T02750190
KI63 181915Z AUTO 11008KT 10SM CLR 28/19 A3006 RMK AO2 T02760187
KI63 181855Z AUTO 09010KT 10SM CLR 27/19 A3006 RMK AO2 T02740186
KI63 181835Z AUTO 09006KT 10SM CLR 27/18 A3007 RMK AO2 T02720184
KI63 181815Z AUTO 09008KT 10SM CLR 27/18 A3008 RMK AO2 T02690179
KI63 181755Z AUTO 13006KT 10SM CLR 27/18 A3008 RMK AO2 T02680179 10270 20195
KI63 181735Z AUTO 10006KT 10SM CLR 27/18 A3009 RMK AO2 T02650180
KI63 181715Z AUTO 13006KT 10SM CLR 26/18 A3009 RMK AO2 T02600177
KI63 181655Z AUTO 14008KT 10SM CLR 26/17 A3010 RMK AO2 T02560171
KI63 181635Z AUTO 15005KT 10SM CLR 25/17 A3010 RMK AO2 T02500165
KI63 181615Z AUTO 17009KT 10SM CLR 25/16 A3011 RMK AO2 T02500163
KI63 181555Z AUTO 13008KT 10SM BKN120 25/16 A3011 RMK AO2 T02450162
KI63 181535Z AUTO 12008KT 10SM BKN120 25/16 A3011 RMK AO2 T02460156